Time;durP1;ratioP1;P1;durP2;ratioP2;P2;SDS_P1;SDS_P2;PMS_P1;PMS_P2;Temp;Humidity;BMP_temperature;BMP_pressure;BME280_temperature;BME280_humidity;BME280_pressure;Samples;Min_cycle;Max_cycle;Signal;HPM_P1;HPM_P2
2024/01/17 00:00:54;;;;;;;16.73;8.63;;;;;;;0.81;93.39;100092.22;10310301;28;20434;-64
2024/01/17 00:06:16;;;;;;;18.88;8.90;;;;;;;0.78;92.72;100097.31;10296403;28;20057;-64
2024/01/17 00:11:38;;;;;;;17.17;8.20;;;;;;;0.76;92.87;100088.84;10306990;28;20522;-64
2024/01/17 00:16:59;;;;;;;13.32;7.85;;;;;;;0.76;93.53;100093.06;10308071;28;20077;-64
2024/01/17 00:22:21;;;;;;;15.93;8.07;;;;;;;0.66;92.94;100074.44;10309646;28;20058;-64
2024/01/17 00:27:43;;;;;;;17.20;8.07;;;;;;;0.62;92.08;100075.28;10309556;28;20057;-64
2024/01/17 00:33:05;;;;;;;20.38;7.95;;;;;;;0.60;91.63;100061.75;10312014;28;20054;-63
2024/01/17 00:38:27;;;;;;;22.08;7.47;;;;;;;0.56;92.58;100044.78;10309040;28;20054;-64
2024/01/17 00:43:48;;;;;;;15.95;7.82;;;;;;;0.47;92.51;100044.81;10307227;28;20042;-64
2024/01/17 00:49:11;;;;;;;15.98;7.78;;;;;;;0.45;91.41;100036.31;10296052;28;20051;-64
2024/01/17 00:54:32;;;;;;;20.85;7.32;;;;;;;0.39;92.86;100030.38;10305943;28;20046;-64
2024/01/17 00:59:54;;;;;;;17.38;8.77;;;;;;;0.37;91.69;100025.31;10307497;28;20125;-63
2024/01/17 01:05:16;;;;;;;19.02;8.07;;;;;;;0.38;92.41;100034.66;10306521;28;20058;-63
2024/01/17 01:10:37;;;;;;;18.55;7.93;;;;;;;0.37;92.03;100032.09;10310618;28;20046;-63
2024/01/17 01:15:59;;;;;;;16.17;7.60;;;;;;;0.36;91.52;100023.63;10305462;28;20042;-63
2024/01/17 01:21:21;;;;;;;16.33;8.55;;;;;;;0.27;92.11;100000.75;10306229;28;20039;-64
2024/01/17 01:26:42;;;;;;;14.40;7.57;;;;;;;0.34;92.27;99997.34;10290452;28;20046;-63
2024/01/17 01:32:05;;;;;;;15.02;7.80;;;;;;;0.32;91.52;100006.69;10302316;28;20141;-63
2024/01/17 01:37:27;;;;;;;19.92;9.02;;;;;;;0.32;92.04;100006.69;10305044;28;20109;-63
2024/01/17 01:42:49;;;;;;;15.23;8.63;;;;;;;0.31;92.63;99996.50;10307497;28;20050;-63
2024/01/17 01:48:11;;;;;;;16.30;9.18;;;;;;;0.34;91.28;99991.41;10293206;28;20450;-63
2024/01/17 01:53:34;;;;;;;12.55;8.07;;;;;;;0.35;92.77;99976.13;10307332;28;20183;-63
2024/01/17 01:58:56;;;;;;;23.00;9.73;;;;;;;0.36;92.35;99964.28;10302606;28;20365;-63
2024/01/17 02:04:18;;;;;;;20.88;9.27;;;;;;;0.35;91.83;99958.31;10316925;28;20492;-64
2024/01/17 02:09:40;;;;;;;17.75;10.15;;;;;;;0.33;93.03;99964.28;10304344;28;20046;-63
2024/01/17 02:15:01;;;;;;;21.95;9.73;;;;;;;0.33;92.45;99960.03;10308053;28;20059;-64
2024/01/17 02:20:23;;;;;;;19.50;10.65;;;;;;;0.35;92.96;99949.88;10307286;28;20038;-63
2024/01/17 02:25:45;;;;;;;22.23;10.02;;;;;;;0.33;93.11;99944.75;10303252;28;20094;-63
2024/01/17 02:31:07;;;;;;;16.50;10.48;;;;;;;0.32;93.50;99932.91;10309404;28;20696;-64
2024/01/17 02:36:28;;;;;;;23.30;11.43;;;;;;;0.34;93.50;99921.03;10300501;28;20132;-63
2024/01/17 02:41:50;;;;;;;22.52;11.40;;;;;;;0.32;93.82;99915.09;10303721;28;20049;-63
2024/01/17 02:47:12;;;;;;;27.95;11.55;;;;;;;0.27;92.88;99888.84;10317848;28;20054;-63
2024/01/17 02:52:33;;;;;;;19.90;10.98;;;;;;;0.31;93.95;99872.69;10309150;28;20053;-64
2024/01/17 02:57:55;;;;;;;24.08;11.13;;;;;;;0.29;93.32;99861.72;10320355;28;20050;-64
2024/01/17 03:03:16;;;;;;;22.73;10.55;;;;;;;0.30;93.46;99853.22;10298658;28;20050;-64
2024/01/17 03:08:38;;;;;;;20.85;11.35;;;;;;;0.29;92.99;99851.53;10322298;28;20043;-64
2024/01/17 03:14:01;;;;;;;23.05;11.40;;;;;;;0.28;93.72;99844.75;10312366;28;20491;-63
2024/01/17 03:19:22;;;;;;;22.13;11.10;;;;;;;0.30;93.40;99837.97;10301245;28;20062;-63
2024/01/17 03:24:47;;;;;;;23.55;10.85;;;;;;;0.29;93.76;99826.13;10303087;28;20078;-63
2024/01/17 03:30:09;;;;;;;20.40;10.75;;;;;;;0.33;92.82;99804.06;10314794;28;20042;-63
2024/01/17 03:35:31;;;;;;;20.02;10.05;;;;;;;0.34;92.78;99806.56;10303334;28;20054;-63
2024/01/17 03:40:55;;;;;;;18.33;9.85;;;;;;;0.37;93.00;99788.75;10303394;28;20098;-65
2024/01/17 03:46:17;;;;;;;22.70;10.65;;;;;;;0.34;93.46;99773.50;10314504;28;20491;-64
2024/01/17 03:51:38;;;;;;;17.45;9.50;;;;;;;0.40;93.24;99778.56;10315469;28;20057;-64
2024/01/17 03:57:00;;;;;;;20.50;10.10;;;;;;;0.41;92.58;99757.34;10301370;28;20050;-64
2024/01/17 04:02:22;;;;;;;15.68;9.55;;;;;;;0.37;93.78;99742.97;10304869;28;20451;-64
2024/01/17 04:07:43;;;;;;;16.52;9.80;;;;;;;0.36;93.03;99746.38;10303026;28;20072;-64
2024/01/17 04:13:05;;;;;;;17.65;9.90;;;;;;;0.34;93.15;99742.13;10301312;28;20376;-64
2024/01/17 04:18:27;;;;;;;17.80;8.98;;;;;;;0.33;93.36;99736.19;10300014;28;20400;-64
2024/01/17 04:23:49;;;;;;;16.77;9.13;;;;;;;0.33;92.63;99745.53;10298956;28;20385;-64
2024/01/17 04:29:11;;;;;;;18.73;9.40;;;;;;;0.31;93.09;99726.91;10311966;28;20050;-63
2024/01/17 04:34:33;;;;;;;16.90;9.32;;;;;;;0.32;93.93;99714.19;10302525;28;20046;-64
2024/01/17 04:39:54;;;;;;;20.13;9.32;;;;;;;0.34;92.30;99703.97;10305787;28;20054;-65
2024/01/17 04:45:19;;;;;;;19.48;9.65;;;;;;;0.29;92.92;99683.69;10311486;28;20046;-64
2024/01/17 04:50:40;;;;;;;16.88;8.57;;;;;;;0.30;93.72;99679.41;10307465;28;20380;-64
2024/01/17 04:56:02;;;;;;;16.48;8.48;;;;;;;0.32;92.44;99670.94;10308528;28;20082;-64
2024/01/17 05:01:25;;;;;;;14.13;8.68;;;;;;;0.30;92.47;99675.19;10314293;28;20429;-64
2024/01/17 05:06:47;;;;;;;17.15;8.80;;;;;;;0.28;91.80;99660.78;10307753;28;20050;-64
2024/01/17 05:12:08;;;;;;;18.17;8.52;;;;;;;0.23;92.44;99653.19;10307583;28;20054;-64
2024/01/17 05:17:32;;;;;;;14.18;8.13;;;;;;;0.28;92.61;99635.34;10303850;28;20062;-64
2024/01/17 05:22:54;;;;;;;18.92;8.18;;;;;;;0.29;92.29;99634.50;10303939;28;20149;-64
2024/01/17 05:28:16;;;;;;;16.10;8.07;;;;;;;0.23;92.07;99627.78;10310395;28;20049;-64
2024/01/17 05:33:38;;;;;;;13.73;7.45;;;;;;;0.19;91.87;99615.94;10303424;28;20065;-64
2024/01/17 05:39:00;;;;;;;15.55;7.53;;;;;;;0.28;90.91;99599.75;10304728;28;20043;-64
2024/01/17 05:44:21;;;;;;;20.17;7.07;;;;;;;0.28;91.64;99600.59;10310082;28;20050;-64
2024/01/17 05:49:43;;;;;;;13.02;7.18;;;;;;;0.26;90.23;99587.06;10305303;28;20487;-64
2024/01/17 05:55:09;;;;;;;11.68;6.43;;;;;;;0.27;89.67;99576.03;10307461;28;20050;-65
2024/01/17 06:00:31;;;;;;;11.70;6.72;;;;;;;0.21;89.99;99553.19;10319357;28;20038;-64
2024/01/17 06:05:54;;;;;;;14.32;6.68;;;;;;;0.25;90.57;99556.56;10304300;28;20058;-64
2024/01/17 06:11:16;;;;;;;11.57;6.82;;;;;;;0.23;89.30;99540.47;10305291;28;20046;-65
2024/01/17 06:16:38;;;;;;;14.05;6.93;;;;;;;0.25;90.53;99548.94;10302930;28;20503;-64
2024/01/17 06:22:00;;;;;;;14.93;7.07;;;;;;;0.23;90.75;99541.31;10301373;28;20049;-64
2024/01/17 06:27:23;;;;;;;14.63;7.30;;;;;;;0.24;90.59;99537.91;10316973;28;20145;-64
2024/01/17 06:32:45;;;;;;;11.35;7.32;;;;;;;0.24;91.14;99515.00;10303166;28;20407;-64
2024/01/17 06:38:07;;;;;;;10.90;7.45;;;;;;;0.16;90.01;99519.34;10292389;28;20141;-64
2024/01/17 06:43:28;;;;;;;13.82;6.97;;;;;;;0.20;90.38;99515.94;10303197;28;20438;-64
2024/01/17 06:48:50;;;;;;;21.80;7.95;;;;;;;0.14;90.77;99507.50;10297888;28;20137;-64
2024/01/17 06:54:12;;;;;;;17.75;7.93;;;;;;;0.12;91.14;99507.53;10304317;28;20687;-64
2024/01/17 06:59:33;;;;;;;15.23;7.68;;;;;;;0.11;90.24;99505.81;10300224;28;20046;-63
2024/01/17 07:04:55;;;;;;;16.83;8.63;;;;;;;0.09;90.91;99491.44;10303070;28;20110;-64
2024/01/17 07:10:17;;;;;;;14.73;7.88;;;;;;;0.09;91.11;99491.44;10299650;28;20050;-65
2024/01/17 07:15:38;;;;;;;16.38;8.05;;;;;;;0.05;91.63;99485.56;10300112;28;20042;-65
2024/01/17 07:21:06;;;;;;;17.20;8.35;;;;;;;0.01;90.66;99499.16;10302188;28;20369;-65
2024/01/17 07:26:28;;;;;;;16.65;8.55;;;;;;;0.04;91.43;99488.94;10304607;28;20129;-64
2024/01/17 07:31:50;;;;;;;15.98;8.82;;;;;;;0.04;91.13;99478.78;10319262;28;20057;-64
2024/01/17 07:37:12;;;;;;;16.52;7.95;;;;;;;0.02;91.19;99459.34;10307448;28;20105;-65
2024/01/17 07:42:36;;;;;;;16.88;8.35;;;;;;;0.01;91.69;99450.84;10305560;28;20074;-65
2024/01/17 07:47:58;;;;;;;14.55;7.72;;;;;;;0.02;90.55;99441.53;10304597;28;20057;-65
2024/01/17 07:53:20;;;;;;;16.13;8.93;;;;;;;0.00;90.47;99444.09;10305626;28;20053;-65
2024/01/17 07:58:42;;;;;;;15.48;8.68;;;;;;;-0.04;90.83;99417.84;10302972;28;20074;-64
2024/01/17 08:04:04;;;;;;;16.52;7.95;;;;;;;-0.02;91.03;99430.56;10310224;28;20057;-65
2024/01/17 08:09:28;;;;;;;17.02;8.00;;;;;;;-0.01;90.51;99419.53;10311581;28;20131;-65
2024/01/17 08:14:50;;;;;;;15.80;8.43;;;;;;;-0.04;90.56;99420.38;10313863;28;20050;-65
2024/01/17 08:20:12;;;;;;;12.68;7.70;;;;;;;-0.05;90.88;99416.16;10310432;28;20058;-65
2024/01/17 08:25:34;;;;;;;17.08;7.95;;;;;;;-0.09;90.75;99416.22;10309443;28;20492;-64
2024/01/17 08:30:56;;;;;;;15.40;8.57;;;;;;;-0.07;90.03;99404.31;10298852;28;20406;-64
2024/01/17 08:36:18;;;;;;;17.45;8.60;;;;;;;-0.07;89.66;99404.31;10314129;28;20061;-64
2024/01/17 08:41:45;;;;;;;18.05;8.70;;;;;;;-0.09;90.48;99390.78;10306944;28;20053;-64
2024/01/17 08:47:07;;;;;;;13.98;8.00;;;;;;;-0.09;90.10;99381.47;10311789;28;20054;-64
2024/01/17 08:52:29;;;;;;;13.75;7.80;;;;;;;-0.08;89.88;99367.94;10311618;28;20049;-64
2024/01/17 08:57:50;;;;;;;14.98;7.85;;;;;;;-0.04;89.75;99374.63;10312823;28;20050;-64
2024/01/17 09:03:12;;;;;;;14.23;7.25;;;;;;;0.00;89.45;99371.19;10309882;28;20052;-64
2024/01/17 09:08:34;;;;;;;11.93;7.68;;;;;;;0.03;90.01;99355.09;10307685;28;20046;-64
2024/01/17 09:13:56;;;;;;;11.98;6.95;;;;;;;0.04;88.92;99354.22;10308843;28;20124;-64
2024/01/17 09:19:20;;;;;;;11.57;6.75;;;;;;;0.08;88.54;99348.25;10311382;28;20049;-64
2024/01/17 09:24:42;;;;;;;12.05;7.00;;;;;;;0.12;89.46;99352.44;10305146;28;20562;-64
2024/01/17 09:30:04;;;;;;;13.05;7.68;;;;;;;0.09;88.08;99344.00;10309225;28;20046;-65
2024/01/17 09:35:27;;;;;;;18.80;7.55;;;;;;;0.11;88.18;99343.09;10287995;28;20139;-64
2024/01/17 09:40:49;;;;;;;13.55;6.88;;;;;;;0.10;87.25;99326.19;10307384;28;20047;-64
2024/01/17 09:46:12;;;;;;;13.50;7.10;;;;;;;0.17;87.44;99327.78;10303682;28;20053;-64
2024/01/17 09:51:35;;;;;;;15.07;7.35;;;;;;;0.17;88.06;99317.63;10318628;28;20058;-64
2024/01/17 09:56:57;;;;;;;12.40;7.22;;;;;;;0.27;87.83;99326.81;10302482;28;20057;-64
2024/01/17 10:02:20;;;;;;;14.15;7.50;;;;;;;0.28;86.73;99325.94;10305167;28;20680;-65
2024/01/17 10:07:41;;;;;;;13.02;7.50;;;;;;;0.26;87.60;99326.84;10302009;28;20517;-65
2024/01/17 10:13:03;;;;;;;16.23;7.85;;;;;;;0.27;87.32;99323.44;10301453;28;20153;-65
2024/01/17 10:18:25;;;;;;;15.13;6.95;;;;;;;0.34;86.67;99309.75;10299745;28;20475;-65
2024/01/17 10:23:46;;;;;;;15.77;7.55;;;;;;;0.35;87.38;99291.13;10312225;28;20047;-64
2024/01/17 10:29:11;;;;;;;14.55;8.13;;;;;;;0.40;86.76;99284.25;10308539;28;20058;-63
2024/01/17 10:34:36;;;;;;;17.90;7.35;;;;;;;0.50;86.21;99281.53;10301802;28;20125;-63
2024/01/17 10:40:11;;;;;;;13.05;7.82;;;;;;;0.54;85.92;99287.44;10317668;28;20096;-61
2024/01/17 10:45:35;;;;;;;12.45;7.50;;;;;;;0.56;85.91;99276.38;10303497;28;20058;-63
2024/01/17 10:51:01;;;;;;;17.00;7.88;;;;;;;0.57;86.28;99272.94;10305266;28;20055;-65
2024/01/17 10:56:23;;;;;;;;;;;;;;;0.56;85.56;99270.44;10300741;28;20058;-63
2024/01/17 11:01:48;;;;;;;12.50;7.07;;;;;;;0.56;86.08;99255.16;10304547;28;19957;-63
2024/01/17 11:07:10;;;;;;;15.27;7.47;;;;;;;0.61;85.94;99244.06;10303024;28;20085;-63
2024/01/17 11:12:34;;;;;;;12.05;7.15;;;;;;;0.62;85.69;99229.66;10306949;28;20046;-63
2024/01/17 11:17:59;;;;;;;12.82;7.35;;;;;;;0.68;85.74;99240.53;10302828;28;20042;-63
2024/01/17 11:23:46;;;;;;;18.30;7.22;;;;;;;0.72;84.78;99226.91;10302424;28;20034;-63
2024/01/17 11:29:45;;;;;;;13.73;6.95;;;;;;;0.74;84.93;99225.19;10304869;28;20051;-63
2024/01/17 11:35:07;;;;;;;12.77;6.97;;;;;;;0.73;84.91;99218.41;10303895;28;20057;-65
2024/01/17 11:40:29;;;;;;;12.43;7.32;;;;;;;0.77;84.79;99203.94;10313437;28;20129;-64
2024/01/17 11:45:53;;;;;;;13.50;6.80;;;;;;;0.80;84.95;99184.38;10308534;28;20098;-64
2024/01/17 11:51:18;;;;;;;19.50;6.90;;;;;;;0.90;84.10;99185.88;10323268;28;20428;-64
2024/01/17 11:56:40;;;;;;;13.15;7.25;;;;;;;0.87;84.83;99180.84;10309743;28;20062;-64
2024/01/17 12:02:02;;;;;;;14.75;7.25;;;;;;;0.86;84.62;99170.69;10320346;28;20392;-64
2024/01/17 12:07:23;;;;;;;13.82;7.25;;;;;;;0.93;84.52;99159.53;10308432;28;20058;-64
2024/01/17 12:12:45;;;;;;;14.73;6.93;;;;;;;0.83;84.59;99130.84;10310664;28;20043;-65
2024/01/17 12:18:07;;;;;;;12.85;7.15;;;;;;;0.86;84.07;99135.88;10316806;28;20055;-65
2024/01/17 12:23:30;;;;;;;16.95;7.38;;;;;;;0.78;83.42;99127.56;10320872;28;20136;-65
2024/01/17 12:29:05;;;;;;;14.32;7.78;;;;;;;0.91;84.02;99134.13;10307972;28;20108;-64
2024/01/17 12:34:27;;;;;;;14.73;7.05;;;;;;;0.86;83.72;99102.78;10310643;28;20053;-65
2024/01/17 12:39:49;;;;;;;15.60;7.55;;;;;;;0.93;83.74;99104.34;10293617;28;20065;-64
2024/01/17 12:45:11;;;;;;;14.95;7.22;;;;;;;0.92;83.86;99092.50;10309598;28;20053;-65
2024/01/17 12:50:33;;;;;;;13.82;7.05;;;;;;;0.92;84.24;99078.91;10304119;28;20575;-65
2024/01/17 12:56:00;;;;;;;12.80;7.05;;;;;;;0.92;83.81;99068.75;10323940;28;20526;-65
2024/01/17 13:01:25;;;;;;;11.38;7.13;;;;;;;0.88;84.07;99055.25;10322930;28;20475;-65
2024/01/17 13:06:49;;;;;;;;;;;;;;;1.02;83.40;99068.56;10309690;28;20046;-65
2024/01/17 13:12:20;;;;;;;25.30;10.88;;;;;;;1.12;83.58;99058.16;10296942;28;19922;-65
2024/01/17 13:17:48;;;;;;;12.48;7.32;;;;;;;1.10;82.22;99054.81;10321500;28;20062;-65
2024/01/17 13:23:10;;;;;;;14.82;7.45;;;;;;;1.08;82.07;99054.00;10310682;28;20074;-65
2024/01/17 13:28:32;;;;;;;20.50;10.40;;;;;;;1.17;82.98;99064.00;10300529;28;20057;-65
2024/01/17 13:33:53;;;;;;;25.67;8.65;;;;;;;1.15;82.89;99051.31;10306108;28;20054;-65
2024/01/17 13:39:15;;;;;;;19.23;9.57;;;;;;;1.23;83.19;99061.34;10303954;28;20474;-64
2024/01/17 13:44:37;;;;;;;12.13;6.80;;;;;;;1.24;82.40;99047.72;10304880;28;20082;-65
2024/01/17 13:50:06;;;;;;;20.40;9.98;;;;;;;1.28;82.12;99044.22;10318325;28;20047;-66
2024/01/17 13:55:28;;;;;;;17.70;9.98;;;;;;;1.29;82.74;99040.81;10313838;28;20522;-66
2024/01/17 14:00:55;;;;;;;17.38;9.85;;;;;;;1.30;82.26;99035.66;10302676;28;20047;-66
2024/01/17 14:06:17;;;;;;;14.88;8.35;;;;;;;1.32;82.18;99030.56;10298198;28;20050;-66
2024/01/17 14:11:40;;;;;;;21.25;11.55;;;;;;;1.32;82.01;99031.38;10306207;28;20034;-66
2024/01/17 14:17:04;;;;;;;16.02;8.27;;;;;;;1.33;83.18;99022.88;10316420;28;20484;-66
2024/01/17 14:22:26;;;;;;;19.67;13.88;;;;;;;1.33;82.26;99027.13;10307256;28;20133;-66
2024/01/17 14:27:47;;;;;;;14.90;8.85;;;;;;;1.30;80.99;99032.31;10290147;28;20058;-66
2024/01/17 14:33:09;;;;;;;12.77;7.50;;;;;;;1.31;82.92;99029.72;10321639;28;20505;-66
2024/01/17 14:38:31;;;;;;;15.95;7.63;;;;;;;1.23;82.04;99023.13;10306278;28;20064;-66
2024/01/17 14:43:53;;;;;;;13.95;7.57;;;;;;;1.21;83.59;99009.59;10290370;28;20456;-66
2024/01/17 14:49:15;;;;;;;12.60;7.15;;;;;;;1.22;82.75;99008.72;10305779;28;20061;-66
2024/01/17 14:54:37;;;;;;;18.65;7.60;;;;;;;1.20;82.59;99001.09;10306382;28;20495;-66
2024/01/17 14:59:58;;;;;;;13.73;6.70;;;;;;;1.23;83.86;99002.75;10303699;28;20153;-66
2024/01/17 15:05:20;;;;;;;13.02;7.30;;;;;;;1.23;82.71;99003.56;10313557;28;20050;-66
2024/01/17 15:10:42;;;;;;;13.23;7.30;;;;;;;1.26;82.93;98995.03;10301274;28;20043;-65
2024/01/17 15:16:04;;;;;;;16.35;7.55;;;;;;;1.23;82.20;98995.13;10300970;28;20050;-65
2024/01/17 15:21:26;;;;;;;12.77;7.10;;;;;;;1.20;82.66;99000.25;10298045;28;20038;-65
2024/01/17 15:26:47;;;;;;;15.15;7.80;;;;;;;1.21;82.48;99001.94;10299282;28;20054;-65
2024/01/17 15:32:10;;;;;;;14.07;8.35;;;;;;;1.20;83.18;98995.16;10304189;28;20066;-66
2024/01/17 15:37:32;;;;;;;15.73;8.88;;;;;;;1.17;84.51;98996.09;10291978;28;20092;-66
2024/01/17 15:42:53;;;;;;;18.33;9.02;;;;;;;1.08;84.25;98990.34;10299966;28;20424;-66
2024/01/17 15:48:15;;;;;;;13.80;8.48;;;;;;;1.09;84.50;98997.09;10300807;28;20042;-66
2024/01/17 15:53:37;;;;;;;21.38;9.48;;;;;;;1.10;85.33;98989.44;10302544;28;20053;-66
2024/01/17 15:58:59;;;;;;;16.25;8.70;;;;;;;1.07;85.02;98983.56;10304870;28;20179;-65
2024/01/17 16:04:21;;;;;;;19.75;10.45;;;;;;;1.10;84.79;98993.72;10312340;28;20063;-65
2024/01/17 16:09:47;;;;;;;17.95;9.80;;;;;;;1.14;86.13;98991.03;10308267;28;20053;-66
2024/01/17 16:15:12;;;;;;;15.70;9.00;;;;;;;1.12;84.76;98986.88;10302397;28;20138;-66
2024/01/17 16:20:34;;;;;;;11.63;6.77;;;;;;;1.17;85.17;98995.25;10315349;28;20046;-67
2024/01/17 16:25:55;;;;;;;16.55;8.85;;;;;;;1.15;84.26;98996.97;10320825;28;20046;-65
2024/01/17 16:31:17;;;;;;;15.25;8.75;;;;;;;1.13;84.20;98989.38;10333179;28;20049;-66
2024/01/17 16:36:39;;;;;;;16.73;9.20;;;;;;;1.21;87.60;98991.75;10320490;28;20466;-66
2024/01/17 16:42:01;;;;;;;20.75;10.10;;;;;;;1.24;85.44;98991.69;10308439;28;20035;-66
2024/01/17 16:47:24;;;;;;;18.50;10.43;;;;;;;1.13;85.36;98994.47;10327073;28;20132;-66
2024/01/17 16:52:46;;;;;;;25.98;10.50;;;;;;;1.15;86.66;98991.88;10306375;28;20050;-66
2024/01/17 16:58:10;;;;;;;21.23;10.73;;;;;;;1.09;85.24;98987.78;10310101;28;20563;-66
2024/01/17 17:03:32;;;;;;;24.48;11.82;;;;;;;1.05;86.25;98986.16;10304206;28;20046;-66
2024/01/17 17:08:54;;;;;;;20.75;11.32;;;;;;;1.06;87.58;98987.00;10310952;28;20138;-66
2024/01/17 17:14:16;;;;;;;28.55;12.45;;;;;;;1.06;87.23;98992.09;10305196;28;20104;-66
2024/01/17 17:19:38;;;;;;;29.55;11.95;;;;;;;1.08;86.57;98998.84;10311377;28;20132;-67
2024/01/17 17:24:59;;;;;;;22.73;12.35;;;;;;;1.07;85.88;98996.31;10307348;28;20125;-66
2024/01/17 17:30:21;;;;;;;21.00;12.13;;;;;;;1.08;86.62;98990.34;10308027;28;20054;-66
2024/01/17 17:35:43;;;;;;;27.02;12.70;;;;;;;1.08;87.86;98992.91;10306656;28;20058;-66
2024/01/17 17:41:06;;;;;;;23.02;11.82;;;;;;;1.04;87.07;98985.31;10306892;28;20118;-64
2024/01/17 17:46:27;;;;;;;21.38;13.07;;;;;;;1.04;86.70;98998.03;10305945;28;20057;-64
2024/01/17 17:51:49;;;;;;;23.73;12.95;;;;;;;1.05;87.33;98996.34;10305992;28;20062;-64
2024/01/17 17:57:11;;;;;;;21.35;11.98;;;;;;;0.98;87.39;99005.84;10309337;28;20050;-64
2024/01/17 18:02:32;;;;;;;31.23;15.55;;;;;;;0.99;86.62;98993.91;10305346;28;20050;-64
2024/01/17 18:07:55;;;;;;;25.38;14.07;;;;;;;1.07;87.26;99009.03;10302301;28;20133;-64
2024/01/17 18:13:17;;;;;;;24.73;13.45;;;;;;;1.11;87.26;98992.81;10317118;28;20478;-64
2024/01/17 18:18:38;;;;;;;25.20;14.38;;;;;;;1.14;88.19;98991.03;10305812;28;20046;-64
2024/01/17 18:24:00;;;;;;;40.53;20.27;;;;;;;1.09;86.66;98995.41;10305816;28;20145;-64
2024/01/17 18:29:22;;;;;;;39.60;18.77;;;;;;;1.12;87.51;99000.44;10303236;28;20050;-64
2024/01/17 18:34:44;;;;;;;29.75;14.27;;;;;;;1.16;87.03;99003.75;10302745;28;20488;-64
2024/01/17 18:40:08;;;;;;;38.35;18.10;;;;;;;1.17;87.03;98992.69;10317689;28;20141;-65
2024/01/17 18:45:30;;;;;;;34.67;15.43;;;;;;;1.14;86.56;99000.38;10299813;28;20133;-65
2024/01/17 18:50:52;;;;;;;47.30;19.70;;;;;;;1.11;87.94;99001.31;10300510;28;20053;-65
2024/01/17 18:56:14;;;;;;;37.88;16.80;;;;;;;1.10;86.98;98996.25;10306661;28;20605;-65
2024/01/17 19:01:36;;;;;;;45.22;17.35;;;;;;;1.09;86.03;99012.38;10299056;28;20042;-65
2024/01/17 19:06:58;;;;;;;73.80;23.63;;;;;;;1.11;86.47;99013.19;10304110;28;20085;-65
2024/01/17 19:12:20;;;;;;;47.97;21.33;;;;;;;1.10;86.86;99014.06;10314742;28;20051;-65
2024/01/17 19:17:42;;;;;;;35.17;18.00;;;;;;;1.13;86.92;99019.09;10303943;28;20134;-65
2024/01/17 19:23:04;;;;;;;27.23;16.88;;;;;;;1.13;88.68;99025.03;10296276;28;20053;-65
2024/01/17 19:28:26;;;;;;;23.73;12.98;;;;;;;1.07;87.78;99020.06;10302717;28;20473;-65
2024/01/17 19:33:48;;;;;;;29.65;13.63;;;;;;;1.13;87.37;99034.38;10300164;28;20075;-65
2024/01/17 19:39:11;;;;;;;22.48;12.15;;;;;;;1.07;87.66;99029.41;10306204;28;20050;-64
2024/01/17 19:44:33;;;;;;;25.40;13.95;;;;;;;1.07;87.35;99034.50;10305414;28;20685;-64
2024/01/17 19:49:55;;;;;;;39.53;19.27;;;;;;;1.03;87.81;99028.63;10299582;28;20050;-64
2024/01/17 19:55:18;;;;;;;28.63;15.10;;;;;;;0.98;87.85;99038.94;10303556;28;20058;-64
2024/01/17 20:00:40;;;;;;;36.20;17.95;;;;;;;1.00;88.16;99043.97;10309059;28;20042;-64
2024/01/17 20:06:06;;;;;;;25.55;13.65;;;;;;;0.96;87.85;99047.44;10311770;28;20527;-64
2024/01/17 20:11:31;;;;;;;31.58;15.98;;;;;;;0.99;89.21;99048.22;10303525;28;20051;-64
2024/01/17 20:16:53;;;;;;;26.58;14.55;;;;;;;0.99;88.79;99048.22;10322997;28;20531;-65
2024/01/17 20:22:15;;;;;;;26.02;14.38;;;;;;;1.02;88.97;99053.28;10314301;28;20054;-65
2024/01/17 20:27:36;;;;;;;30.20;14.90;;;;;;;1.02;89.72;99060.06;10327830;28;20133;-65
2024/01/17 20:32:58;;;;;;;72.88;31.85;;;;;;;1.03;89.97;99049.00;10325904;28;20467;-64
2024/01/17 20:38:20;;;;;;;42.63;19.92;;;;;;;0.97;89.76;99056.78;10311801;28;20066;-65
2024/01/17 20:43:43;;;;;;;44.47;19.05;;;;;;;0.91;90.15;99065.38;10310156;28;20044;-65
2024/01/17 20:49:04;;;;;;;29.42;17.23;;;;;;;0.81;90.66;99074.06;10302346;28;20463;-65
2024/01/17 20:54:29;;;;;;;73.97;30.00;;;;;;;0.77;90.98;99077.50;10297691;28;20557;-64
2024/01/17 20:59:51;;;;;;;144.10;43.35;;;;;;;0.76;90.71;99086.03;10323835;28;20050;-64
2024/01/17 21:05:13;;;;;;;81.95;26.50;;;;;;;0.76;91.21;99080.09;10314043;28;20447;-64
2024/01/17 21:10:34;;;;;;;118.10;37.63;;;;;;;0.72;91.26;99084.41;10296473;28;20050;-64
2024/01/17 21:15:56;;;;;;;70.63;27.88;;;;;;;0.69;91.86;99089.56;10312150;28;20507;-64
2024/01/17 21:21:18;;;;;;;35.53;18.38;;;;;;;0.68;92.55;99098.06;10307076;28;20078;-64
2024/01/17 21:26:40;;;;;;;71.80;29.45;;;;;;;0.64;93.00;99096.41;10307036;28;20771;-64
2024/01/17 21:32:05;;;;;;;57.25;25.60;;;;;;;0.60;93.13;99112.63;10309053;28;20519;-63
2024/01/17 21:37:27;;;;;;;93.65;37.30;;;;;;;0.58;93.49;99122.00;10311010;28;20085;-64
2024/01/17 21:42:48;;;;;;;61.47;26.50;;;;;;;0.55;93.92;99134.75;10307618;28;20045;-64
2024/01/17 21:48:10;;;;;;;86.80;38.33;;;;;;;0.55;93.81;99141.56;10304284;28;20383;-64
2024/01/17 21:53:32;;;;;;;79.78;39.13;;;;;;;0.51;93.31;99135.69;10310595;28;20133;-64
2024/01/17 21:58:54;;;;;;;52.55;28.70;;;;;;;0.46;94.08;99147.63;10305955;28;20047;-64
2024/01/17 22:04:16;;;;;;;64.43;32.65;;;;;;;0.41;94.38;99141.78;10308615;28;20051;-63
2024/01/17 22:09:37;;;;;;;62.65;30.83;;;;;;;0.39;94.03;99146.06;10306813;28;20582;-63
2024/01/17 22:14:59;;;;;;;41.85;22.77;;;;;;;0.40;94.28;99157.94;10305358;28;20054;-63
2024/01/17 22:20:21;;;;;;;66.60;30.70;;;;;;;0.38;94.32;99162.19;10303121;28;20073;-63
2024/01/17 22:25:43;;;;;;;45.63;24.48;;;;;;;0.38;95.18;99169.81;10303235;28;20558;-63
2024/01/17 22:31:05;;;;;;;39.90;21.50;;;;;;;0.32;94.90;99167.38;10316429;28;20083;-63
2024/01/17 22:36:26;;;;;;;33.65;18.73;;;;;;;0.27;96.24;99155.59;10304775;28;20050;-63
2024/01/17 22:41:48;;;;;;;35.50;16.90;;;;;;;0.28;95.48;99165.75;10300146;28;20070;-64
2024/01/17 22:47:09;;;;;;;28.55;17.10;;;;;;;0.25;95.99;99170.88;10300190;28;20411;-64
2024/01/17 22:52:31;;;;;;;49.63;25.33;;;;;;;0.26;95.48;99180.19;10302920;28;20536;-63
2024/01/17 22:57:53;;;;;;;42.17;22.92;;;;;;;0.20;95.83;99170.13;10288265;28;20054;-63
2024/01/17 23:03:14;;;;;;;54.28;27.20;;;;;;;0.25;96.20;99178.50;10302148;28;20411;-63
2024/01/17 23:08:36;;;;;;;39.42;21.52;;;;;;;0.26;96.31;99175.09;10302230;28;20056;-63
2024/01/17 23:13:58;;;;;;;41.53;20.38;;;;;;;0.24;96.95;99186.16;10301023;28;20050;-63
2024/01/17 23:19:19;;;;;;;36.00;18.20;;;;;;;0.23;97.27;99182.78;10303223;28;20512;-63
2024/01/17 23:24:41;;;;;;;40.90;22.33;;;;;;;0.21;97.39;99197.22;10298385;28;20049;-64
2024/01/17 23:30:03;;;;;;;52.45;25.02;;;;;;;0.25;97.53;99196.31;10297561;28;20056;-64
2024/01/17 23:35:25;;;;;;;52.30;22.17;;;;;;;0.20;97.04;99199.78;10298617;28;20046;-64
2024/01/17 23:40:47;;;;;;;66.03;28.40;;;;;;;0.11;97.07;99210.09;10310601;28;20050;-64
2024/01/17 23:46:08;;;;;;;34.33;19.90;;;;;;;0.00;98.24;99207.72;10311931;28;20419;-64
2024/01/17 23:51:30;;;;;;;40.00;21.25;;;;;;;-0.02;98.60;99220.41;10304901;28;20145;-63
2024/01/17 23:56:52;;;;;;;39.92;21.10;;;;;;;-0.02;99.56;99229.75;10309199;28;20062;-63
